Time;durP1;ratioP1;P1;durP2;ratioP2;P2;SDS_P1;SDS_P2;PMS_P1;PMS_P2;Temp;Humidity;BMP_temperature;BMP_pressure;BME280_temperature;BME280_humidity;BME280_pressure;Samples;Min_cycle;Max_cycle;Signal;HPM_P1;HPM_P2
2023/04/05 00:02:09;;;;;;;0.50;0.50;;;;;;;4.45;46.82;101604.97;5045033;28;20023;-65
2023/04/05 00:04:37;;;;;;;0.50;0.50;;;;;;;4.43;47.16;101610.88;5045283;28;20426;-65
2023/04/05 00:07:07;;;;;;;0.50;0.50;;;;;;;4.39;46.94;101609.91;5045094;28;20029;-65
2023/04/05 00:09:32;;;;;;;0.50;0.50;;;;;;;4.40;47.10;101614.22;5044748;28;20056;-65
2023/04/05 00:11:58;;;;;;;0.50;0.50;;;;;;;4.41;47.01;101609.97;5044864;28;20408;-65
2023/04/05 00:14:23;;;;;;;0.82;0.82;;;;;;;4.39;46.93;101607.34;5044727;28;20025;-64
2023/04/05 00:16:49;;;;;;;0.40;0.40;;;;;;;4.37;47.06;101608.06;5044858;28;20029;-64
2023/04/05 00:19:14;;;;;;;0.50;0.50;;;;;;;4.36;46.97;101608.91;5045103;28;20036;-66
2023/04/05 00:21:40;;;;;;;0.50;0.50;;;;;;;4.29;46.90;101607.81;5044630;28;20017;-65
2023/04/05 00:24:06;;;;;;;0.47;0.47;;;;;;;4.24;47.02;101606.75;5044828;28;20488;-65
2023/04/05 00:26:32;;;;;;;0.40;0.40;;;;;;;4.17;46.91;101616.81;5044713;28;20547;-65
2023/04/05 00:28:57;;;;;;;0.50;0.50;;;;;;;4.12;47.40;101607.19;5044627;28;20021;-65
2023/04/05 00:31:23;;;;;;;0.50;0.50;;;;;;;4.06;47.52;101600.97;5044827;28;20022;-65
2023/04/05 00:33:48;;;;;;;0.50;0.50;;;;;;;4.00;47.46;101605.00;5044558;28;20025;-65
2023/04/05 00:36:16;;;;;;;0.50;0.50;;;;;;;3.99;47.58;101614.44;5041347;28;20076;-65
2023/04/05 00:38:42;;;;;;;0.50;0.50;;;;;;;3.89;47.62;101608.06;5044242;28;20084;-65
2023/04/05 00:41:09;;;;;;;0.50;0.50;;;;;;;3.88;47.79;101611.44;5045965;28;20030;-64
2023/04/05 00:43:34;;;;;;;0.47;0.47;;;;;;;3.84;47.69;101604.41;5048088;28;20041;-65
2023/04/05 00:46:04;;;;;;;0.50;0.50;;;;;;;3.82;47.78;101608.59;5047036;28;20029;-65
2023/04/05 00:48:31;;;;;;;0.50;0.50;;;;;;;3.79;47.74;101608.50;5048618;28;20027;-66
2023/04/05 00:50:57;;;;;;;0.50;0.50;;;;;;;3.74;47.63;101600.59;5048472;28;20060;-65
2023/04/05 00:53:23;;;;;;;0.50;0.50;;;;;;;3.68;47.52;101601.25;5048357;28;20028;-65
2023/04/05 00:55:52;;;;;;;0.50;0.50;;;;;;;3.62;47.77;101608.72;5048548;28;20025;-65
2023/04/05 00:58:21;;;;;;;0.50;0.50;;;;;;;3.54;47.98;101603.28;5048615;28;20032;-67
2023/04/05 01:01:17;;;;;;;0.50;0.50;;;;;;;3.49;48.08;101604.78;5048195;28;20041;-66
2023/04/05 01:03:48;;;;;;;0.50;0.50;;;;;;;3.42;48.09;101601.09;5031989;28;20045;-65
2023/04/05 01:06:27;;;;;;;0.60;0.60;;;;;;;3.32;47.91;101602.41;5048303;28;20045;-65
2023/04/05 01:09:11;;;;;;;0.50;0.50;;;;;;;3.30;47.99;101595.47;5048452;28;20037;-67
2023/04/05 01:11:38;;;;;;;0.50;0.50;;;;;;;3.26;47.82;101588.47;5047231;28;20029;-65
2023/04/05 01:14:03;;;;;;;0.50;0.50;;;;;;;3.22;47.97;101588.34;5047946;28;20029;-65
2023/04/05 01:16:29;;;;;;;0.50;0.50;;;;;;;3.20;47.94;101592.50;5048004;28;20029;-64
2023/04/05 01:18:57;;;;;;;0.50;0.50;;;;;;;3.20;47.84;101591.63;5048235;28;20077;-65
2023/04/05 01:21:38;;;;;;;0.50;0.50;;;;;;;3.18;47.79;101590.72;5030234;28;20060;-65
2023/04/05 01:24:19;;;;;;;0.50;0.50;;;;;;;3.16;47.87;101594.91;5047986;28;20029;-64
2023/04/05 01:26:50;;;;;;;0.70;0.70;;;;;;;3.12;47.84;101586.19;5048107;28;20022;-65
2023/04/05 01:29:28;;;;;;;0.60;0.60;;;;;;;3.06;47.96;101583.38;5048056;28;20029;-65
2023/04/05 01:31:53;;;;;;;0.50;0.50;;;;;;;3.02;47.84;101574.66;5047956;28;20037;-65
2023/04/05 01:34:18;;;;;;;0.50;0.50;;;;;;;3.01;47.92;101583.19;5048076;28;20032;-64
2023/04/05 01:36:49;;;;;;;0.50;0.50;;;;;;;2.98;47.97;101577.91;5047920;28;20033;-65
2023/04/05 01:39:16;;;;;;;0.50;0.50;;;;;;;2.96;47.87;101582.09;5048072;28;20029;-65
2023/04/05 01:41:42;;;;;;;0.50;0.50;;;;;;;2.92;48.02;101581.13;5047740;28;20244;-66
2023/04/05 01:44:07;;;;;;;0.50;0.50;;;;;;;2.93;48.04;101577.72;5047540;28;20109;-65
2023/04/05 01:46:33;;;;;;;0.50;0.50;;;;;;;2.90;48.20;101572.47;5047884;28;20041;-66
2023/04/05 01:48:58;;;;;;;0.50;0.50;;;;;;;2.90;48.34;101580.16;5047736;28;20080;-64
2023/04/05 01:51:24;;;;;;;0.50;0.50;;;;;;;2.87;48.32;101577.47;5047524;28;20047;-65
2023/04/05 01:53:50;;;;;;;0.50;0.50;;;;;;;2.85;48.32;101571.38;5047588;28;20025;-66
2023/04/05 01:56:15;;;;;;;0.50;0.50;;;;;;;2.84;48.38;101575.63;5047716;28;20191;-65
2023/04/05 01:58:40;;;;;;;0.50;0.50;;;;;;;2.76;48.41;101566.75;5027128;28;20034;-66
2023/04/05 02:01:06;;;;;;;0.50;0.50;;;;;;;2.77;48.56;101572.75;5046038;28;20036;-65
2023/04/05 02:03:31;;;;;;;0.50;0.50;;;;;;;2.69;48.55;101567.28;5047244;28;20017;-65
2023/04/05 02:05:57;;;;;;;0.50;0.50;;;;;;;2.64;48.69;101566.22;5047033;28;20037;-65
2023/04/05 02:08:22;;;;;;;0.50;0.50;;;;;;;2.63;48.75;101572.16;5047262;28;20108;-64
2023/04/05 02:10:48;;;;;;;0.55;0.55;;;;;;;2.59;48.78;101563.44;5047177;28;20028;-65
2023/04/05 02:13:13;;;;;;;0.50;0.50;;;;;;;2.55;49.12;101566.69;5047135;28;20029;-65
2023/04/05 02:15:39;;;;;;;0.50;0.50;;;;;;;2.56;49.19;101571.91;5046754;28;20029;-65
2023/04/05 02:18:06;;;;;;;0.47;0.47;;;;;;;2.51;49.87;101563.13;5047113;28;20033;-65
2023/04/05 02:20:32;;;;;;;0.50;0.50;;;;;;;2.45;50.28;101556.06;5046797;28;20081;-65
2023/04/05 02:22:59;;;;;;;0.60;0.60;;;;;;;2.38;50.21;101559.13;5047127;28;20029;-64
2023/04/05 02:25:25;;;;;;;0.50;0.50;;;;;;;2.31;50.27;101555.44;5046912;28;20025;-65
2023/04/05 02:27:50;;;;;;;0.50;0.50;;;;;;;2.28;50.10;101555.31;5046849;28;20064;-66
2023/04/05 02:30:16;;;;;;;0.60;0.60;;;;;;;2.26;49.99;101550.91;5046530;28;20112;-65
2023/04/05 02:32:41;;;;;;;0.50;0.50;;;;;;;2.28;50.01;101559.56;5046959;28;20377;-65
2023/04/05 02:35:08;;;;;;;0.50;0.50;;;;;;;2.28;49.93;101557.88;5046832;28;20032;-64
2023/04/05 02:37:34;;;;;;;0.50;0.50;;;;;;;2.28;49.93;101560.44;5046620;28;20542;-65
2023/04/05 02:40:00;;;;;;;0.50;0.50;;;;;;;2.27;50.09;101553.53;5046715;28;20033;-65
2023/04/05 02:42:25;;;;;;;0.50;0.50;;;;;;;2.23;50.04;101550.00;5046418;28;20120;-66
2023/04/05 02:44:51;;;;;;;0.50;0.50;;;;;;;2.22;49.99;101549.91;5046506;28;20025;-65
2023/04/05 02:47:20;;;;;;;0.50;0.50;;;;;;;2.23;50.00;101557.69;5046602;28;20033;-65
2023/04/05 02:49:47;;;;;;;0.77;0.77;;;;;;;2.22;50.00;101549.91;5046702;28;20391;-66
2023/04/05 02:52:13;;;;;;;0.50;0.50;;;;;;;2.22;50.40;101545.66;5043519;28;20022;-65
2023/04/05 02:54:38;;;;;;;0.60;0.60;;;;;;;2.25;50.35;101544.03;5028564;28;20087;-65
2023/04/05 02:57:03;;;;;;;0.50;0.50;;;;;;;2.26;50.40;101550.91;5046046;28;20040;-65
2023/04/05 02:59:29;;;;;;;0.50;0.50;;;;;;;2.26;50.23;101556.03;5046107;28;20041;-65
2023/04/05 03:01:54;;;;;;;0.50;0.50;;;;;;;2.20;50.18;101547.28;5046007;28;20026;-64
2023/04/05 03:04:20;;;;;;;0.50;0.50;;;;;;;2.16;50.11;101550.50;5044136;28;20087;-65
2023/04/05 03:06:47;;;;;;;0.50;0.50;;;;;;;2.12;50.06;101547.75;5028222;28;20033;-65
2023/04/05 03:09:13;;;;;;;0.70;0.70;;;;;;;2.00;50.37;101553.19;5046294;28;20173;-65
2023/04/05 03:11:39;;;;;;;0.50;0.50;;;;;;;1.91;51.04;101541.72;5045834;28;20083;-65
2023/04/05 03:14:04;;;;;;;0.50;0.50;;;;;;;1.82;51.91;101534.47;5045719;28;20018;-64
2023/04/05 03:16:30;;;;;;;0.50;0.50;;;;;;;1.80;50.73;101535.22;5045947;28;20028;-66
2023/04/05 03:18:56;;;;;;;0.60;0.60;;;;;;;1.79;50.48;101538.59;5046082;28;20227;-65
2023/04/05 03:21:21;;;;;;;0.60;0.60;;;;;;;1.75;50.41;101541.81;5045614;28;20108;-65
2023/04/05 03:23:47;;;;;;;0.60;0.60;;;;;;;1.70;51.06;101539.03;5045796;28;20021;-65
2023/04/05 03:26:13;;;;;;;0.50;0.50;;;;;;;1.64;51.28;101534.53;5045814;28;20025;-64
2023/04/05 03:28:44;;;;;;;0.50;0.50;;;;;;;1.58;51.18;101535.09;5045765;28;20029;-64
2023/04/05 03:31:10;;;;;;;0.50;0.50;;;;;;;1.53;51.03;101535.69;5045448;28;20028;-65
2023/04/05 03:33:36;;;;;;;0.50;0.50;;;;;;;1.46;50.85;101534.53;5045541;28;20040;-64
2023/04/05 03:36:01;;;;;;;0.50;0.50;;;;;;;1.44;50.78;101536.13;5045713;28;20026;-65
2023/04/05 03:38:27;;;;;;;0.50;0.50;;;;;;;1.45;50.76;101538.75;5045473;28;20406;-64
2023/04/05 03:40:53;;;;;;;0.60;0.60;;;;;;;1.39;50.81;101532.50;5045373;28;20022;-64
2023/04/05 03:43:18;;;;;;;0.50;0.50;;;;;;;1.38;51.08;101536.72;5045269;28;20132;-65
2023/04/05 03:45:44;;;;;;;0.50;0.50;;;;;;;1.40;51.18;101537.69;5045146;28;20079;-65
2023/04/05 03:48:09;;;;;;;0.50;0.50;;;;;;;1.41;51.18;101547.09;5045308;28;20029;-65
2023/04/05 03:50:35;;;;;;;0.50;0.50;;;;;;;1.43;50.89;101534.38;5045015;28;20021;-65
2023/04/05 03:53:00;;;;;;;0.50;0.50;;;;;;;1.45;51.03;101533.63;5045761;28;20017;-64
2023/04/05 03:55:26;;;;;;;0.50;0.50;;;;;;;1.42;50.78;101528.38;5045162;28;20029;-65
2023/04/05 03:57:52;;;;;;;0.60;0.60;;;;;;;1.50;50.50;101531.31;5027382;28;20045;-65
2023/04/05 04:00:18;;;;;;;0.60;0.60;;;;;;;1.55;50.54;101541.78;5044866;28;20025;-65
2023/04/05 04:02:46;;;;;;;0.50;0.50;;;;;;;1.55;50.42;101534.94;5027409;28;20095;-64
2023/04/05 04:05:13;;;;;;;0.50;0.50;;;;;;;1.58;50.50;101535.09;5045254;28;20025;-68
2023/04/05 04:07:40;;;;;;;0.50;0.50;;;;;;;1.58;50.66;101524.00;5045116;28;20078;-65
2023/04/05 04:10:07;;;;;;;0.50;0.50;;;;;;;1.62;50.41;101528.44;5044830;28;20212;-64
2023/04/05 04:12:32;;;;;;;0.50;0.50;;;;;;;1.63;50.45;101534.44;5045030;28;20017;-63
2023/04/05 04:14:58;;;;;;;0.50;0.50;;;;;;;1.64;50.48;101529.41;5044184;28;20025;-64
2023/04/05 04:17:32;;;;;;;0.50;0.50;;;;;;;1.61;50.57;101519.03;5044414;28;20036;-65
2023/04/05 04:19:58;;;;;;;0.50;0.50;;;;;;;1.64;50.69;101524.28;5044696;28;20033;-65
2023/04/05 04:22:37;;;;;;;0.60;0.60;;;;;;;1.66;50.70;101516.66;5044615;28;20022;-65
2023/04/05 04:25:09;;;;;;;0.50;0.50;;;;;;;1.59;50.93;101511.28;5043822;28;20056;-65
2023/04/05 04:27:38;;;;;;;0.60;0.60;;;;;;;1.66;50.68;101524.34;5026286;28;20032;-64
2023/04/05 04:30:09;;;;;;;0.50;0.50;;;;;;;1.68;50.86;101523.59;5044188;28;20112;-66
2023/04/05 04:32:54;;;;;;;0.68;0.68;;;;;;;1.68;50.76;101515.03;5044133;28;20083;-63
2023/04/05 04:35:23;;;;;;;0.50;0.50;;;;;;;1.68;50.59;101520.16;5044314;28;20033;-64
2023/04/05 04:37:58;;;;;;;0.50;0.50;;;;;;;1.67;50.76;101516.75;5043759;28;20049;-66
2023/04/05 04:40:28;;;;;;;0.50;0.50;;;;;;;1.77;51.00;101515.50;5026543;28;20040;-64
2023/04/05 04:42:57;;;;;;;0.50;0.50;;;;;;;2.03;51.22;101517.47;5044516;28;20049;-66
2023/04/05 04:45:23;;;;;;;0.50;0.50;;;;;;;2.33;51.57;101511.94;5043034;28;20089;-65
2023/04/05 04:47:52;;;;;;;0.50;0.50;;;;;;;2.64;51.72;101518.38;5044061;28;20049;-65
2023/04/05 04:50:18;;;;;;;0.50;0.50;;;;;;;3.00;52.10;101524.09;5044057;28;20026;-65
2023/04/05 04:52:45;;;;;;;0.40;0.40;;;;;;;3.32;52.17;101529.66;5044228;28;20022;-64
2023/04/05 04:55:14;;;;;;;0.50;0.50;;;;;;;3.72;52.41;101526.06;5026700;28;20280;-65
2023/04/05 04:57:41;;;;;;;0.50;0.50;;;;;;;4.15;52.25;101517.31;5044635;28;20013;-66
2023/04/05 05:00:14;;;;;;;0.50;0.50;;;;;;;4.54;52.21;101514.41;5026614;28;20036;-63
2023/04/05 05:02:41;;;;;;;0.40;0.40;;;;;;;4.86;52.19;101518.88;5044391;28;20488;-65
2023/04/05 05:05:07;;;;;;;0.50;0.50;;;;;;;5.31;52.06;101514.31;5044786;28;20039;-65
2023/04/05 05:07:34;;;;;;;0.40;0.40;;;;;;;5.67;51.52;101513.66;5044395;28;20105;-64
2023/04/05 05:09:59;;;;;;;0.40;0.40;;;;;;;6.09;50.91;101510.59;5043285;28;20496;-65
2023/04/05 05:12:25;;;;;;;0.40;0.40;;;;;;;6.55;50.96;101509.25;5044110;28;20025;-65
2023/04/05 05:14:51;;;;;;;0.50;0.50;;;;;;;7.03;49.82;101514.72;5044219;28;20079;-66
2023/04/05 05:17:16;;;;;;;0.50;0.50;;;;;;;7.44;48.64;101507.94;5025459;28;20056;-64
2023/04/05 05:19:42;;;;;;;1.13;1.13;;;;;;;8.02;50.11;101502.22;5044223;28;20017;-65
2023/04/05 05:22:07;;;;;;;0.40;0.40;;;;;;;8.67;50.30;101504.31;5044018;28;20017;-67
2023/04/05 05:24:33;;;;;;;0.40;0.40;;;;;;;8.85;48.86;101508.06;5044069;28;20029;-65
2023/04/05 05:26:58;;;;;;;0.35;0.35;;;;;;;9.07;46.92;101504.09;5045282;28;20029;-65
2023/04/05 05:29:24;;;;;;;0.40;0.40;;;;;;;9.45;48.18;101507.22;5030234;28;20427;-65
2023/04/05 05:31:49;;;;;;;0.40;0.40;;;;;;;9.42;47.66;101503.72;5048005;28;20215;-65
2023/04/05 05:34:16;;;;;;;0.70;0.70;;;;;;;9.61;47.05;101505.72;5048000;28;20025;-66
2023/04/05 05:36:41;;;;;;;0.40;0.40;;;;;;;9.96;45.83;101502.69;5030067;28;20029;-65
2023/04/05 05:39:07;;;;;;;0.65;0.65;;;;;;;10.65;44.90;101504.28;5047915;28;20022;-65
2023/04/05 05:41:33;;;;;;;0.65;0.63;;;;;;;11.15;45.37;101509.88;5047141;28;20044;-66
2023/04/05 05:43:59;;;;;;;0.40;0.40;;;;;;;11.68;45.03;101495.44;5047773;28;20045;-66
2023/04/05 05:46:27;;;;;;;0.30;0.30;;;;;;;12.09;44.14;101496.50;5047716;28;20029;-65
2023/04/05 05:48:53;;;;;;;0.40;0.40;;;;;;;12.19;43.07;101485.22;5047603;28;20025;-65
2023/04/05 05:51:18;;;;;;;0.30;0.30;;;;;;;12.57;43.01;101490.50;5047790;28;20027;-66
2023/04/05 05:53:44;;;;;;;0.30;0.30;;;;;;;13.05;43.67;101494.84;5047789;28;20109;-66
2023/04/05 05:56:10;;;;;;;0.40;0.40;;;;;;;13.57;43.72;101490.38;5047688;28;20021;-66
2023/04/05 05:58:36;;;;;;;0.30;0.30;;;;;;;13.48;43.06;101475.63;5046888;28;20036;-64
2023/04/05 06:01:02;;;;;;;1.20;1.20;;;;;;;13.61;43.80;101476.47;5047125;28;20117;-66
2023/04/05 06:03:29;;;;;;;0.38;0.38;;;;;;;13.94;43.12;101484.13;5047597;28;20022;-65
2023/04/05 06:05:56;;;;;;;1.38;1.30;;;;;;;13.59;41.21;101489.53;5047408;28;20052;-65
2023/04/05 06:08:22;;;;;;;0.30;0.30;;;;;;;13.03;41.00;101487.00;5029533;28;20036;-65
2023/04/05 06:10:49;;;;;;;0.40;0.40;;;;;;;12.84;42.19;101484.41;5047390;28;20040;-65
2023/04/05 06:13:15;;;;;;;0.40;0.40;;;;;;;13.13;42.26;101480.91;5046891;28;20029;-66
2023/04/05 06:15:44;;;;;;;0.40;0.40;;;;;;;13.28;41.83;101479.13;5047161;28;20051;-65
2023/04/05 06:18:10;;;;;;;0.40;0.40;;;;;;;13.56;41.64;101479.06;5047274;28;20028;-66
2023/04/05 06:20:39;;;;;;;0.30;0.30;;;;;;;13.58;40.81;101487.75;5047024;28;20025;-65
2023/04/05 06:23:10;;;;;;;0.40;0.40;;;;;;;13.38;39.61;101486.06;5046915;28;20021;-65
2023/04/05 06:25:36;;;;;;;0.40;0.40;;;;;;;13.14;40.42;101498.31;5047068;28;20029;-65
2023/04/05 06:28:03;;;;;;;0.30;0.30;;;;;;;13.01;39.60;101491.34;5047160;28;20082;-65
2023/04/05 06:30:30;;;;;;;0.40;0.40;;;;;;;12.81;39.97;101494.81;5046608;28;20483;-64
2023/04/05 06:32:56;;;;;;;0.40;0.40;;;;;;;12.67;39.72;101494.00;5045598;28;20025;-67
2023/04/05 06:35:21;;;;;;;0.30;0.30;;;;;;;12.64;39.43;101493.09;5046187;28;20094;-67
2023/04/05 06:37:47;;;;;;;0.93;0.82;;;;;;;12.36;39.46;101497.41;5046611;28;20038;-66
2023/04/05 06:40:16;;;;;;;0.60;0.60;;;;;;;12.16;39.02;101490.41;5046275;28;20465;-67
2023/04/05 06:42:42;;;;;;;0.40;0.40;;;;;;;11.97;39.49;101484.25;5046064;28;20056;-65
2023/04/05 06:45:08;;;;;;;0.40;0.40;;;;;;;11.86;38.69;101486.84;5046246;28;20021;-65
2023/04/05 06:47:34;;;;;;;0.40;0.40;;;;;;;11.51;38.46;101484.09;5046662;28;20366;-66
2023/04/05 06:50:01;;;;;;;0.40;0.40;;;;;;;10.98;37.83;101477.69;5046739;28;20116;-65
2023/04/05 06:52:27;;;;;;;0.40;0.40;;;;;;;10.51;38.85;101475.59;5046581;28;20014;-65
2023/04/05 06:54:52;;;;;;;0.40;0.40;;;;;;;10.77;39.32;101487.94;5046569;28;20026;-65
2023/04/05 06:57:18;;;;;;;0.40;0.40;;;;;;;11.03;38.66;101487.28;5046362;28;20025;-65
2023/04/05 06:59:43;;;;;;;0.40;0.40;;;;;;;11.53;39.42;101481.50;5046084;28;20137;-65
2023/04/05 07:02:09;;;;;;;0.57;0.57;;;;;;;11.93;38.14;101479.94;5046010;28;20025;-65
2023/04/05 07:04:35;;;;;;;0.40;0.40;;;;;;;11.90;37.88;101478.19;5046490;28;20032;-64
2023/04/05 07:07:01;;;;;;;0.35;0.35;;;;;;;12.08;39.19;101469.59;5028570;28;20026;-65
2023/04/05 07:09:29;;;;;;;0.30;0.30;;;;;;;12.67;38.31;101470.53;5046549;28;20033;-65
2023/04/05 07:11:56;;;;;;;0.30;0.30;;;;;;;13.06;38.34;101475.69;5046182;28;20481;-65
2023/04/05 07:14:21;;;;;;;0.40;0.40;;;;;;;13.25;36.96;101453.94;5046214;28;20029;-64
2023/04/05 07:16:47;;;;;;;0.30;0.30;;;;;;;12.98;35.67;101462.69;5046142;28;20121;-64
2023/04/05 07:19:12;;;;;;;0.30;0.30;;;;;;;12.31;35.96;101460.97;5046043;28;20030;-65
2023/04/05 07:21:38;;;;;;;0.40;0.40;;;;;;;11.75;36.85;101461.66;5045973;28;20380;-64
2023/04/05 07:24:05;;;;;;;0.40;0.40;;;;;;;11.63;37.57;101465.06;5045997;28;20030;-65
2023/04/05 07:26:33;;;;;;;0.40;0.40;;;;;;;11.58;37.14;101456.38;5046023;28;20028;-65
2023/04/05 07:28:59;;;;;;;0.40;0.40;;;;;;;11.90;38.06;101454.78;5046154;28;20022;-66
2023/04/05 07:31:24;;;;;;;0.40;0.40;;;;;;;12.55;37.75;101451.44;5045764;28;20017;-65
2023/04/05 07:33:50;;;;;;;0.30;0.30;;;;;;;12.72;37.18;101450.53;5045791;28;20031;-65
2023/04/05 07:36:15;;;;;;;9.05;1.85;;;;;;;13.14;37.23;101445.28;5045956;28;20088;-66
2023/04/05 07:38:41;;;;;;;0.30;0.30;;;;;;;13.46;36.11;101438.22;5045740;28;20026;-65
2023/04/05 07:41:06;;;;;;;0.38;0.38;;;;;;;13.27;35.12;101435.69;5045454;28;20048;-65
2023/04/05 07:43:32;;;;;;;0.30;0.30;;;;;;;13.32;36.25;101433.91;5045677;28;20038;-64
2023/04/05 07:46:02;;;;;;;0.30;0.30;;;;;;;13.95;35.39;101431.91;5045402;28;20100;-64
2023/04/05 07:48:27;;;;;;;0.30;0.30;;;;;;;14.00;35.08;101426.66;5045640;28;20036;-65
2023/04/05 07:50:52;;;;;;;0.30;0.30;;;;;;;14.24;35.56;101423.03;5027636;28;20040;-65
2023/04/05 07:53:18;;;;;;;0.30;0.30;;;;;;;14.69;34.21;101424.41;5045346;28;20025;-65
2023/04/05 07:55:45;;;;;;;0.30;0.30;;;;;;;14.61;33.79;101428.84;5045644;28;20040;-65
2023/04/05 07:58:11;;;;;;;0.30;0.30;;;;;;;14.37;33.83;101428.16;5045442;28;20025;-65
2023/04/05 08:00:36;;;;;;;0.30;0.30;;;;;;;14.18;33.66;101420.47;5045124;28;20052;-64
2023/04/05 08:03:03;;;;;;;0.30;0.30;;;;;;;14.13;34.52;101422.25;5045130;28;20029;-64
2023/04/05 08:05:29;;;;;;;0.30;0.30;;;;;;;14.24;34.62;101425.66;5045446;28;20045;-64
2023/04/05 08:07:56;;;;;;;0.30;0.30;;;;;;;14.45;33.64;101417.66;5045116;28;20028;-66
2023/04/05 08:10:22;;;;;;;0.30;0.30;;;;;;;14.50;33.56;101428.94;5045432;28;20108;-64
2023/04/05 08:12:48;;;;;;;0.30;0.30;;;;;;;14.51;33.47;101417.59;5045111;28;20022;-64
2023/04/05 08:15:13;;;;;;;0.55;0.55;;;;;;;14.59;32.93;101421.00;5027106;28;20428;-64
2023/04/05 08:17:39;;;;;;;0.40;0.40;;;;;;;14.52;32.64;101418.47;5045023;28;20024;-65
2023/04/05 08:20:05;;;;;;;0.30;0.30;;;;;;;14.27;32.05;101416.91;5044912;28;20025;-64
2023/04/05 08:22:30;;;;;;;0.30;0.30;;;;;;;14.11;32.87;101414.41;5044896;28;20021;-64
2023/04/05 08:24:55;;;;;;;0.30;0.30;;;;;;;14.25;33.10;101410.81;5027288;28;20029;-64
2023/04/05 08:27:21;;;;;;;0.30;0.30;;;;;;;14.16;32.39;101422.22;5045020;28;20035;-64
2023/04/05 08:29:46;;;;;;;0.45;0.45;;;;;;;14.41;33.13;101411.56;5044770;28;20075;-64
2023/04/05 08:32:12;;;;;;;0.30;0.30;;;;;;;14.86;31.98;101395.50;5044871;28;20017;-65
2023/04/05 08:34:37;;;;;;;0.30;0.30;;;;;;;15.21;31.31;101397.72;5044869;28;20044;-65
2023/04/05 08:37:02;;;;;;;0.30;0.30;;;;;;;15.22;30.94;101407.34;5027107;28;20464;-64
2023/04/05 08:39:28;;;;;;;0.30;0.30;;;;;;;15.45;30.88;101408.78;5044773;28;20470;-64
2023/04/05 08:42:07;;;;;;;0.30;0.30;;;;;;;15.59;30.98;101404.22;5044512;28;20037;-64
2023/04/05 08:44:36;;;;;;;0.40;0.40;;;;;;;15.56;29.58;101392.97;5026807;28;20042;-63
2023/04/05 08:47:01;;;;;;;0.30;0.30;;;;;;;15.58;29.83;101391.16;5044782;28;20021;-64
2023/04/05 08:49:27;;;;;;;0.30;0.30;;;;;;;15.34;29.17;101386.25;5044732;28;20064;-64
2023/04/05 08:51:54;;;;;;;0.35;0.35;;;;;;;15.16;30.35;101384.72;5044553;28;20026;-64
2023/04/05 08:54:20;;;;;;;0.30;0.30;;;;;;;15.68;30.04;101391.91;5044724;28;20021;-65
2023/04/05 08:56:47;;;;;;;0.30;0.30;;;;;;;15.44;29.24;101375.66;5044715;28;20036;-64
2023/04/05 08:59:15;;;;;;;0.30;0.30;;;;;;;15.35;29.88;101374.03;5044590;28;20032;-64
2023/04/05 09:01:42;;;;;;;0.30;0.30;;;;;;;15.54;29.29;101373.78;5044921;28;20576;-64
2023/04/05 09:04:23;;;;;;;0.40;0.40;;;;;;;15.71;30.00;101365.69;5048536;28;20033;-63
2023/04/05 09:06:54;;;;;;;0.40;0.40;;;;;;;16.09;29.07;101353.78;5048451;28;20018;-64
2023/04/05 09:09:21;;;;;;;0.40;0.40;;;;;;;15.98;28.56;101359.22;5048560;28;20101;-64
2023/04/05 09:11:47;;;;;;;0.40;0.40;;;;;;;15.88;28.74;101367.19;5048417;28;20034;-64
2023/04/05 09:14:13;;;;;;;0.40;0.40;;;;;;;15.80;28.88;101362.09;5048703;28;20066;-64
2023/04/05 09:16:41;;;;;;;2.38;1.75;;;;;;;15.82;28.66;101345.44;5048290;28;20025;-64
2023/04/05 09:19:07;;;;;;;0.40;0.40;;;;;;;15.49;28.63;101361.63;5048310;28;20026;-64
2023/04/05 09:21:59;;;;;;;0.30;0.30;;;;;;;15.98;28.22;101361.84;5047908;28;20026;-64
2023/04/05 09:24:32;;;;;;;;;;;;;;;15.73;28.39;101366.53;5045009;28;20093;-64
2023/04/05 09:27:05;;;;;;;;;;;;;;;16.09;29.00;101338.06;5048709;28;19919;-64
2023/04/05 09:29:30;;;;;;;0.30;0.30;;;;;;;15.85;28.10;101361.13;5030121;28;19909;-64
2023/04/05 09:31:55;;;;;;;0.35;0.35;;;;;;;15.82;28.42;101358.53;5048183;28;20495;-64
2023/04/05 09:34:22;;;;;;;0.32;0.32;;;;;;;16.17;28.14;101352.78;5048076;28;20384;-64
2023/04/05 09:36:48;;;;;;;0.30;0.30;;;;;;;16.13;26.63;101359.84;5048015;28;20060;-64
2023/04/05 09:39:18;;;;;;;0.30;0.30;;;;;;;14.97;27.65;101343.09;5048123;28;20022;-64
2023/04/05 09:42:18;;;;;;;0.55;0.55;;;;;;;14.99;29.18;101343.06;5047629;28;20024;-65
2023/04/05 09:45:05;;;;;;;0.38;0.38;;;;;;;15.51;28.06;101353.75;5047087;28;20060;-64
2023/04/05 09:47:33;;;;;;;1.10;1.10;;;;;;;15.30;27.13;101341.84;5047811;28;20021;-65
2023/04/05 09:50:16;;;;;;;0.30;0.30;;;;;;;14.99;27.41;101341.34;5047853;28;20034;-64
2023/04/05 09:52:42;;;;;;;0.30;0.30;;;;;;;14.81;27.75;101318.88;5047808;28;20085;-64
2023/04/05 09:55:08;;;;;;;0.30;0.30;;;;;;;14.67;27.67;101328.59;5047810;28;20032;-64
2023/04/05 09:57:39;;;;;;;3.50;2.90;;;;;;;14.56;27.87;101342.66;5047547;28;20029;-64
2023/04/05 10:00:09;;;;;;;0.30;0.30;;;;;;;14.37;28.24;101332.38;5047448;28;20025;-65
2023/04/05 10:02:39;;;;;;;0.30;0.30;;;;;;;14.70;28.46;101331.16;5047504;28;20025;-65
2023/04/05 10:05:06;;;;;;;0.30;0.30;;;;;;;14.13;28.22;101342.16;5047489;28;20089;-65
2023/04/05 10:07:33;;;;;;;0.30;0.30;;;;;;;13.71;27.98;101328.53;5047702;28;20037;-64
2023/04/05 10:10:00;;;;;;;0.30;0.30;;;;;;;12.55;28.80;101335.94;5047322;28;20076;-65
2023/04/05 10:12:27;;;;;;;2.50;1.65;;;;;;;11.60;30.30;101335.00;5047242;28;20060;-64
2023/04/05 10:14:54;;;;;;;0.40;0.40;;;;;;;11.36;31.25;101331.47;5046137;28;20030;-64
2023/04/05 10:17:26;;;;;;;0.40;0.40;;;;;;;11.44;31.37;101322.84;5047401;28;20053;-64
2023/04/05 10:20:13;;;;;;;0.40;0.40;;;;;;;11.33;31.08;101328.88;5047302;28;20029;-66
2023/04/05 10:22:41;;;;;;;0.40;0.40;;;;;;;10.98;31.78;101324.41;5047251;28;20024;-65
2023/04/05 10:25:17;;;;;;;0.40;0.40;;;;;;;10.69;31.68;101332.94;5047182;28;20108;-65
2023/04/05 10:28:04;;;;;;;0.40;0.40;;;;;;;10.23;32.54;101326.50;5047228;28;20446;-66
2023/04/05 10:30:35;;;;;;;0.40;0.40;;;;;;;10.22;32.73;101304.91;5046598;28;20043;-65
2023/04/05 10:33:39;;;;;;;0.57;0.57;;;;;;;9.64;33.06;101325.13;5047122;28;20040;-63
2023/04/05 10:36:16;;;;;;;0.40;0.40;;;;;;;9.15;33.82;101323.69;5006009;28;20037;-66
2023/04/05 10:39:10;;;;;;;0.40;0.40;;;;;;;9.13;34.39;101312.47;5047032;28;20029;-65
2023/04/05 10:41:42;;;;;;;0.40;0.40;;;;;;;9.74;35.04;101309.66;5029018;28;20128;-64
2023/04/05 10:44:08;;;;;;;;;;;;;;;10.81;34.00;101296.63;5047129;28;20121;-64
2023/04/05 10:46:35;;;;;;;0.40;0.40;;;;;;;12.00;32.21;101282.16;5046750;28;19913;-65
2023/04/05 10:49:28;;;;;;;0.40;0.40;;;;;;;12.24;31.54;101297.78;5028866;28;20104;-64
2023/04/05 10:51:55;;;;;;;0.40;0.40;;;;;;;12.02;31.13;101285.63;5046657;28;20026;-64
2023/04/05 10:54:21;;;;;;;0.40;0.40;;;;;;;11.61;31.68;101289.94;5046798;28;20030;-65
2023/04/05 10:56:47;;;;;;;0.40;0.40;;;;;;;11.47;31.72;101291.66;5028681;28;20053;-64
2023/04/05 10:59:14;;;;;;;0.40;0.40;;;;;;;11.28;31.92;101286.41;5029055;28;20103;-65
2023/04/05 11:01:41;;;;;;;0.30;0.30;;;;;;;11.69;32.25;101283.88;5046229;28;20026;-65
2023/04/05 11:04:11;;;;;;;0.40;0.40;;;;;;;11.69;31.92;101289.09;5046490;28;20396;-65
2023/04/05 11:06:37;;;;;;;0.40;0.40;;;;;;;11.24;32.06;101279.47;5028811;28;20115;-65
2023/04/05 11:09:21;;;;;;;0.40;0.40;;;;;;;11.95;31.71;101285.66;5046475;28;20456;-63
2023/04/05 11:11:49;;;;;;;0.40;0.40;;;;;;;11.61;31.36;101273.47;5046154;28;20021;-64
2023/04/05 11:14:20;;;;;;;0.40;0.40;;;;;;;12.03;32.27;101276.06;5046150;28;20473;-65
2023/04/05 11:16:48;;;;;;;0.50;0.50;;;;;;;12.49;31.19;101269.13;5046181;28;20396;-67
2023/04/05 11:19:16;;;;;;;0.38;0.38;;;;;;;12.61;30.28;101255.19;5046223;28;20026;-64
2023/04/05 11:21:43;;;;;;;0.40;0.40;;;;;;;11.79;31.00;101267.41;5045794;28;20022;-64
2023/04/05 11:24:16;;;;;;;0.40;0.40;;;;;;;12.29;31.74;101266.53;5045843;28;20021;-65
2023/04/05 11:26:42;;;;;;;0.40;0.40;;;;;;;13.03;30.22;101262.84;5046085;28;20469;-64
2023/04/05 11:29:07;;;;;;;0.40;0.40;;;;;;;12.62;29.60;101255.16;5045912;28;20088;-65
2023/04/05 11:31:32;;;;;;;0.40;0.40;;;;;;;11.43;30.57;101269.09;5045824;28;20028;-64
2023/04/05 11:34:09;;;;;;;0.40;0.40;;;;;;;10.51;31.66;101244.53;5045888;28;20028;-65